Lake Dahlia — 3FQR6 — position and weather

sailwx.info

Track history (hours):
 
Tides and Currents Weather Stations Pressure Air Temp Water Temp Dewpoint Dewpoint Depression Visibility Wind Speed Wind Dir Waves Ship Positions

Lake Dahlia

Last reported at 2018-Jun-22 09:23 UTC. Time now 2018-Jun-22 23:02 UTC.
Position N 37°03' W 075°24'.

Length 225 m; draft 7.1 m.

Type: Cargo ship. MMSI: 354825000.

Date/timePositionNaut miles runAvg speedWind from/ knotsBaromVisibWave heightAir tempDewpointWater temp
2018-Jun-22 09:23N 37°03' W 075°24'2 6.3
2018-Jun-22 09:00N 37°03' W 075°21'4 7.7
2018-Jun-22 08:29N 37°04' W 075°17'4 7.4
2018-Jun-22 07:57N 37°04' W 075°12'4 8.1
2018-Jun-22 07:30N 37°05' W 075°07'4 7.9
2018-Jun-22 07:00N 37°06' W 075°02'4 8.5
2018-Jun-22 06:30N 37°06' W 074°57'4 9.2
2018-Jun-22 06:00N 37°07' W 074°51'5 9.4
2018-Jun-22 05:30N 37°08' W 074°46'510.4
2018-Jun-22 05:00N 37°09' W 074°39'3 6.0
2018-Jun-22 04:30N 37°09' W 074°36'612.1
2018-Jun-22 03:59N 37°09' W 074°28'1613.0
2018-Jun-22 02:44N 37°11' W 074°07'  
Track history (hours):
 
Tides and Currents Weather Stations Pressure Air Temp Water Temp Dewpoint Dewpoint Depression Visibility Wind Speed Wind Dir Waves Ship Positions

Lake Dahlia

Last reported at 2018-Jun-22 09:23 UTC. Time now 2018-Jun-22 23:02 UTC.
Position N 37°03' W 075°24'.

Length 225 m; draft 7.1 m.

Type: Cargo ship. MMSI: 354825000.

Date/timePositionNaut miles runAvg speedWind from/ knotsBaromVisibWave heightAir tempDewpointWater temp
2018-Jun-22 09:23N 37°03' W 075°24'2 6.3
2018-Jun-22 09:00N 37°03' W 075°21'4 7.7
2018-Jun-22 08:29N 37°04' W 075°17'4 7.4
2018-Jun-22 07:57N 37°04' W 075°12'4 8.1
2018-Jun-22 07:30N 37°05' W 075°07'4 7.9
2018-Jun-22 07:00N 37°06' W 075°02'4 8.5
2018-Jun-22 06:30N 37°06' W 074°57'4 9.2
2018-Jun-22 06:00N 37°07' W 074°51'5 9.4
2018-Jun-22 05:30N 37°08' W 074°46'510.4
2018-Jun-22 05:00N 37°09' W 074°39'3 6.0
2018-Jun-22 04:30N 37°09' W 074°36'612.1
2018-Jun-22 03:59N 37°09' W 074°28'1613.0
2018-Jun-22 02:44N 37°11' W 074°07'  

Dump ship's entire track history